Dr.kaiyo — JD2325 — position and weather

sailwx.info

Track history (hours):
 
Tides and Currents Weather Stations Pressure Air Temp Water Temp Dewpoint Dewpoint Depression Visibility Wind Speed Wind Dir Waves Ship Positions

Dr.kaiyo

Last reported at 2015-Mar-03 05:33 UTC. Time now 2015-Mar-03 16:41 UTC.
Position N 34°41' E 135°13'.

Length 31 m.

Type: Other ship. MMSI: 431301823.

Date/timePositionNaut miles runAvg speedWind from/ knotsBaromVisibWave heightAir tempDewpointWater temp
2015-Mar-03 05:33N 34°41' E 135°13'5 5.1
2015-Mar-03 04:30N 34°37' E 135°09'3 2.8
2015-Mar-03 03:24N 34°39' E 135°12'4 5.2
2015-Mar-03 02:33N 34°35' E 135°10'5 5.1
2015-Mar-03 01:33N 34°30' E 135°09'1211.8
2015-Mar-03 00:33N 34°41' E 135°13'  
2015-Feb-26 06:33N 34°39' E 135°16'10 9.6
2015-Feb-26 05:29N 34°30' E 135°22'0 0.4
2015-Feb-26 04:29N 34°30' E 135°22'0 0.2
2015-Feb-26 02:19N 34°30' E 135°22'0 0.1
2015-Feb-26 01:30N 34°30' E 135°22'0 0.3
2015-Feb-26 00:33N 34°30' E 135°22'1212.1
2015-Feb-25 23:33N 34°40' E 135°15'2 0.1
2015-Feb-25 04:27N 34°41' E 135°12'4 4.9
2015-Feb-25 03:33N 34°38' E 135°16'9 9.0
2015-Feb-25 02:33N 34°29' E 135°16'9 9.0
2015-Feb-25 01:33N 34°32' E 135°05'10 9.7
2015-Feb-25 00:33N 34°40' E 135°12'1 0.1
2015-Feb-24 02:33N 34°41' E 135°12'0 0.0
2015-Feb-24 01:33N 34°41' E 135°12'0 0.0
2015-Feb-24 00:27N 34°41' E 135°12'  
Track history (hours):
 
Tides and Currents Weather Stations Pressure Air Temp Water Temp Dewpoint Dewpoint Depression Visibility Wind Speed Wind Dir Waves Ship Positions

Dr.kaiyo

Last reported at 2015-Mar-03 05:33 UTC. Time now 2015-Mar-03 16:41 UTC.
Position N 34°41' E 135°13'.

Length 31 m.

Type: Other ship. MMSI: 431301823.

Date/timePositionNaut miles runAvg speedWind from/ knotsBaromVisibWave heightAir tempDewpointWater temp
2015-Mar-03 05:33N 34°41' E 135°13'5 5.1
2015-Mar-03 04:30N 34°37' E 135°09'3 2.8
2015-Mar-03 03:24N 34°39' E 135°12'4 5.2
2015-Mar-03 02:33N 34°35' E 135°10'5 5.1
2015-Mar-03 01:33N 34°30' E 135°09'1211.8
2015-Mar-03 00:33N 34°41' E 135°13'  
2015-Feb-26 06:33N 34°39' E 135°16'10 9.6
2015-Feb-26 05:29N 34°30' E 135°22'0 0.4
2015-Feb-26 04:29N 34°30' E 135°22'0 0.2
2015-Feb-26 02:19N 34°30' E 135°22'0 0.1
2015-Feb-26 01:30N 34°30' E 135°22'0 0.3
2015-Feb-26 00:33N 34°30' E 135°22'1212.1
2015-Feb-25 23:33N 34°40' E 135°15'2 0.1
2015-Feb-25 04:27N 34°41' E 135°12'4 4.9
2015-Feb-25 03:33N 34°38' E 135°16'9 9.0
2015-Feb-25 02:33N 34°29' E 135°16'9 9.0
2015-Feb-25 01:33N 34°32' E 135°05'10 9.7
2015-Feb-25 00:33N 34°40' E 135°12'1 0.1
2015-Feb-24 02:33N 34°41' E 135°12'0 0.0
2015-Feb-24 01:33N 34°41' E 135°12'0 0.0
2015-Feb-24 00:27N 34°41' E 135°12'  

Dump ship's entire track history